AirNav   Everest Fuels
 
 563 users online  

WI91 Larson Airport
Larsen, Wisconsin, USA

GOING TO LARSEN?


FAA INFORMATION EFFECTIVE 26 JANUARY 2023

Location

FAA Identifier: WI91
Lat/Long: 44-12-09.9390N 088-38-22.3960W
44-12.165650N 088-38.373267W
44.2027608,-88.6395544
(estimated)
Elevation: 800 ft. / 244 m (estimated)
Variation: 01W (1985)
From city: 1 mile NW of LARSEN, WI
Time zone: UTC -6 (UTC -5 during Daylight Saving Time)
Zip code: 54947

Airport Operations

Airport use: Private use. Permission required prior to landing
Activation date: 02/1973
Control tower: no
ARTCC: MINNEAPOLIS CENTER
FSS: GREEN BAY FLIGHT SERVICE STATION
Attendance: UNATNDD
Wind indicator: yes
Segmented circle: no

Airport Communications

WX AWOS-3 at ATW (6 nm NE): PHONE 920-832-2597
WX ASOS at OSH (14 nm S): PHONE 920-426-1644
WX AWOS-3 at PCZ (18 nm NW): 118.625 (920-867-2407)

Nearby radio navigation aids

VOR radial/distance  VOR name  Freq  Var
OSHr342/13.2OSHKOSH VORTAC116.7502E
GRBr221/28.5GREEN BAY VORTAC115.5001E

 
NDB name  Hdg/Dist  Freq  Var  ID
KOOKY268/10.440702WAQ .- --.-

Airport Services

Airframe service: NONE
Powerplant service: NONE

Runway Information

Runway 18/36

Dimensions: 2300 x 100 ft. / 701 x 30 m
Surface: turf
RUNWAY 18  RUNWAY 36
Traffic pattern: leftleft
Obstructions: 75 ft. pline, 1500 ft. from runway, 20:1 slope to clearnone

Airport Ownership and Management from official FAA records

Ownership: Privately-owned
Owner: ABE & THEDA ECKSTEIN
8654 COUNTY ROAD M
LARSEN, WI 54947
Phone 920-836-2886
Manager: BENJAMIN JOAS
8870 COUNTY ROAD M
LARSEN, WI 54947
Phone 920-527-9681

Airport Operational Statistics

Aircraft based on the field: 5
Single engine airplanes: 5
    

Additional Remarks

FOR CD CTC MINNEAPOLIS ARTCC AT 651-463-5588.

Instrument Procedures

There are no published instrument procedures at WI91.

Some nearby airports with instrument procedures:

KATW - Appleton International Airport (6 nm NE)
KOSH - Wittman Regional Airport (14 nm S)
KPCZ - Waupaca Municipal Airport (18 nm NW)
KCLI - Clintonville Municipal Airport (25 nm N)
KFLD - Fond Du Lac County Airport (27 nm S)
 
Loc | Ops | Rwys | IFR | FBO | Links
Com | Nav | Svcs | Stats | Notes
Area around WI91 (Larson Airport)
 
Road maps at: MapQuest Bing Google
 
Aerial photo
No photo
 
Sectional chart

 
Airport distance calculator
Flying to Larson Airport? Find the distance to fly.

From to WI91

Sunrise and sunset
Times for 27-Jan-2023
 Local
(UTC-6)
 Zulu
(UTC)
Morning civil twilight06:4812:48
Sunrise07:1913:19
Sunset16:5622:56
Evening civil twilight17:2723:27

Current date and time
Zulu (UTC)  27-Jan-2023 10:58:02
Local (UTC-6)  27-Jan-2023 04:58:02
 
METAR
KATW 
6nm NE 
271055Z AUTO 15009KT 10SM SCT021 SCT110 M11/M14 A2970 RMK AO2
KOSH 
15nm S 
271053Z AUTO 18016KT 10SM FEW120 M11/M14 A2972 RMK AO2 SLP086 T11061139
KPCZ 
18nm NW 
271055Z AUTO 15009G14KT 10SM BKN120 M10/M13 A2969 RMK AO2 T11001126
TAF
KATW 
6nm NE 
270520Z 2706/2806 22010KT P6SM SCT013 TEMPO 2708/2711 BKN013 FM271100 18012G20KT P6SM SCT015 BKN035 WS020/21040KT TEMPO 2713/2714 3SM -SN BKN025 FM271400 20015G27KT 2SM -SN BKN015 OVC025 WS020/21045KT TEMPO 2714/2718 3/4SM -SN OVC010 FM272000 24015G24KT P6SM -SHSN OVC018 FM272200 27016G25KT P6SM BKN022 FM280400 28013G22KT P6SM BKN030
NOTAMs
Click for the latest NOTAMs
NOTAMs are issued by the DoD/FAA and will open in a separate window not controlled by AirNav.

 

 
 

Would you like to see your business listed on this page?

 If your business provides an interesting product or service to pilots, flight crews, aircraft, or users of the Larson Airport, you should consider listing it here.  To start the listing process, click on the button below
 
Add a business
 

Other Pages about Larson Airport

Update a link
 
Copyright © AirNav, LLC. All rights reserved. Privacy Policy  Contact